Station Historical Data
Daily Summary for March 6, 2017 Units:  Both    English   Metric
« Previous Day
Next Day »
Daily Weekly Monthly Yearly Custom
  High: Low: Average:
Temperature: 59.9 °F /  15.5 °C 25.9 °F /  -3.4 °C 46.4 °F /  8 °C
Dew Point: 46.6 °F /  8.1 °C 14.4 °F /  -9.8 °C 31.3 °F /  -0.4 °C
Humidity: 79% 38% 57%
Wind Speed: 14.0mph /  22.5km/h - 3.7mph /  6km/h
Wind Gust: 17.0mph /  27.4km/h - -
Wind- - South
Pressure: 30.39 in /  1029 hPa 30.07 in /  1018.2 hPa -
Precipitation: 0.00 in /  0 mm    
Historical Graphs
 
 
Tabular Data for March 6, 2017
Time Temperature Dew Point Pressure Wind Wind Speed Wind Gust Humidity Rainfall Rate (Hourly)
00:04 27.0 °F /  -2.8 °C 15.3 °F /  -9.3 °C 30.38in /  1028.7hPa Calm     61% 0.00in /  0mm
00:09 27.0 °F /  -2.8 °C 15.3 °F /  -9.3 °C 30.39in /  1029hPa Calm     61% 0.00in /  0mm
00:14 26.9 °F /  -2.8 °C 15.6 °F /  -9.1 °C 30.39in /  1029hPa Calm     62% 0.00in /  0mm
00:19 26.7 °F /  -2.9 °C 15.0 °F /  -9.4 °C 30.39in /  1029hPa Calm     61% 0.00in /  0mm
00:24 26.7 °F /  -2.9 °C 15.0 °F /  -9.4 °C 30.39in /  1029hPa Calm     61% 0.00in /  0mm
00:29 26.4 °F /  -3.1 °C 15.5 °F /  -9.2 °C 30.39in /  1029hPa Calm     63% 0.00in /  0mm
00:34 26.2 °F /  -3.2 °C 15.3 °F /  -9.3 °C 30.39in /  1029hPa Calm     63% 0.00in /  0mm
00:39 26.0 °F /  -3.3 °C 15.5 °F /  -9.2 °C 30.39in /  1029hPa Calm     64% 0.00in /  0mm
00:44 25.9 °F /  -3.4 °C 15.7 °F /  -9.1 °C 30.38in /  1028.7hPa Calm     65% 0.00in /  0mm
00:49 26.4 °F /  -3.1 °C 15.9 °F /  -8.9 °C 30.38in /  1028.7hPa Calm     64% 0.00in /  0mm
00:54 26.4 °F /  -3.1 °C 15.9 °F /  -8.9 °C 30.38in /  1028.7hPa Calm     64% 0.00in /  0mm
00:59 26.6 °F /  -3 °C 16.4 °F /  -8.7 °C 30.38in /  1028.7hPa Calm     65% 0.00in /  0mm
01:04 26.7 °F /  -2.9 °C 16.5 °F /  -8.6 °C 30.38in /  1028.7hPa Calm     65% 0.00in /  0mm
01:09 27.0 °F /  -2.8 °C 16.4 °F /  -8.7 °C 30.37in /  1028.3hPa Calm     64% 0.00in /  0mm
01:14 27.0 °F /  -2.8 °C 16.4 °F /  -8.7 °C 30.37in /  1028.3hPa Calm     64% 0.00in /  0mm
01:19 27.2 °F /  -2.7 °C 16.3 °F /  -8.7 °C 30.37in /  1028.3hPa Calm     63% 0.00in /  0mm
01:24 27.4 °F /  -2.6 °C 16.1 °F /  -8.8 °C 30.37in /  1028.3hPa Calm   3.0mph /  4.8km/h 62% 0.00in /  0mm
01:29 27.5 °F /  -2.5 °C 15.8 °F /  -9 °C 30.37in /  1028.3hPa NE 1.0mph /  1.6km/h 3.0mph /  4.8km/h 61% 0.00in /  0mm
01:34 27.6 °F /  -2.4 °C 15.9 °F /  -8.9 °C 30.37in /  1028.3hPa NE 1.0mph /  1.6km/h 3.0mph /  4.8km/h 61% 0.00in /  0mm
01:39 27.8 °F /  -2.3 °C 16.1 °F /  -8.8 °C 30.37in /  1028.3hPa ENE 2.0mph /  3.2km/h 5.0mph /  8km/h 61% 0.00in /  0mm
01:44 28.0 °F /  -2.2 °C 15.9 °F /  -8.9 °C 30.38in /  1028.7hPa NE 2.0mph /  3.2km/h 5.0mph /  8km/h 60% 0.00in /  0mm
01:49 28.0 °F /  -2.2 °C 16.3 °F /  -8.7 °C 30.38in /  1028.7hPa North 2.0mph /  3.2km/h 3.0mph /  4.8km/h 61% 0.00in /  0mm
01:54 28.1 °F /  -2.2 °C 16.4 °F /  -8.7 °C 30.38in /  1028.7hPa NE 3.0mph /  4.8km/h 4.0mph /  6.4km/h 61% 0.00in /  0mm
01:59 28.1 °F /  -2.2 °C 16.0 °F /  -8.9 °C 30.37in /  1028.3hPa NE 2.0mph /  3.2km/h 4.0mph /  6.4km/h 60% 0.00in /  0mm
02:04 28.2 °F /  -2.1 °C 16.1 °F /  -8.8 °C 30.37in /  1028.3hPa NE 1.0mph /  1.6km/h 4.0mph /  6.4km/h 60% 0.00in /  0mm
02:09 28.3 °F /  -2.1 °C 15.8 °F /  -9 °C 30.36in /  1028hPa NE 1.0mph /  1.6km/h 3.0mph /  4.8km/h 59% 0.00in /  0mm
02:14 28.5 °F /  -1.9 °C 15.6 °F /  -9.1 °C 30.36in /  1028hPa ENE 2.0mph /  3.2km/h 4.0mph /  6.4km/h 58% 0.00in /  0mm
02:19 28.8 °F /  -1.8 °C 15.9 °F /  -8.9 °C 30.35in /  1027.7hPa ENE 2.0mph /  3.2km/h 5.0mph /  8km/h 58% 0.00in /  0mm
02:24 28.9 °F /  -1.7 °C 16.4 °F /  -8.7 °C 30.35in /  1027.7hPa ENE 2.0mph /  3.2km/h 5.0mph /  8km/h 59% 0.00in /  0mm
02:29 29.1 °F /  -1.6 °C 16.1 °F /  -8.8 °C 30.34in /  1027.3hPa ENE 2.0mph /  3.2km/h 5.0mph /  8km/h 58% 0.00in /  0mm
02:34 29.4 °F /  -1.4 °C 15.6 °F /  -9.1 °C 30.34in /  1027.3hPa East 3.0mph /  4.8km/h 10.0mph /  16.1km/h 56% 0.00in /  0mm
02:39 29.9 °F /  -1.2 °C 15.3 °F /  -9.3 °C 30.34in /  1027.3hPa SSE 3.0mph /  4.8km/h 5.0mph /  8km/h 54% 0.00in /  0mm
02:44 30.6 °F /  -0.8 °C 15.0 °F /  -9.4 °C 30.34in /  1027.3hPa East 5.0mph /  8km/h 8.0mph /  12.9km/h 52% 0.00in /  0mm
02:49 31.0 °F /  -0.6 °C 14.5 °F /  -9.7 °C 30.33in /  1027hPa ESE 3.0mph /  4.8km/h 7.0mph /  11.3km/h 50% 0.00in /  0mm
02:54 31.4 °F /  -0.3 °C 14.4 °F /  -9.8 °C 30.33in /  1027hPa SE 1.0mph /  1.6km/h 6.0mph /  9.7km/h 49% 0.00in /  0mm
02:59 31.7 °F /  -0.2 °C 14.7 °F /  -9.6 °C 30.33in /  1027hPa ESE 3.0mph /  4.8km/h 5.0mph /  8km/h 49% 0.00in /  0mm
03:04 32.0 °F /  0 °C 14.5 °F /  -9.7 °C 30.34in /  1027.3hPa South 2.0mph /  3.2km/h 7.0mph /  11.3km/h 48% 0.00in /  0mm
03:09 32.1 °F /  0.1 °C 14.6 °F /  -9.7 °C 30.34in /  1027.3hPa NE 3.0mph /  4.8km/h 3.0mph /  4.8km/h 48% 0.00in /  0mm
03:14 32.2 °F /  0.1 °C 15.2 °F /  -9.3 °C 30.34in /  1027.3hPa East 1.0mph /  1.6km/h 3.0mph /  4.8km/h 49% 0.00in /  0mm
03:19 32.1 °F /  0.1 °C 15.1 °F /  -9.4 °C 30.34in /  1027.3hPa Calm   5.0mph /  8km/h 49% 0.00in /  0mm
03:24 32.2 °F /  0.1 °C 15.2 °F /  -9.3 °C 30.34in /  1027.3hPa Calm   5.0mph /  8km/h 49% 0.00in /  0mm
03:29 32.2 °F /  0.1 °C 15.2 °F /  -9.3 °C 30.34in /  1027.3hPa Calm   2.0mph /  3.2km/h 49% 0.00in /  0mm
03:34 32.1 °F /  0.1 °C 15.1 °F /  -9.4 °C 30.33in /  1027hPa Calm   2.0mph /  3.2km/h 49% 0.00in /  0mm
03:39 32.2 °F /  0.1 °C 15.2 °F /  -9.3 °C 30.33in /  1027hPa Calm   2.0mph /  3.2km/h 49% 0.00in /  0mm
03:44 32.1 °F /  0.1 °C 16.0 °F /  -8.9 °C 30.34in /  1027.3hPa Calm   1.0mph /  1.6km/h 51% 0.00in /  0mm
03:49 32.2 °F /  0.1 °C 16.1 °F /  -8.8 °C 30.34in /  1027.3hPa Calm     51% 0.00in /  0mm
03:54 32.1 °F /  0.1 °C 16.0 °F /  -8.9 °C 30.34in /  1027.3hPa Calm     51% 0.00in /  0mm
03:59 32.1 °F /  0.1 °C 15.5 °F /  -9.2 °C 30.34in /  1027.3hPa Calm     50% 0.00in /  0mm
04:04 32.1 °F /  0.1 °C 16.4 °F /  -8.7 °C 30.34in /  1027.3hPa Calm     52% 0.00in /  0mm
04:09 32.1 °F /  0.1 °C 16.0 °F /  -8.9 °C 30.33in /  1027hPa ENE 1.0mph /  1.6km/h 3.0mph /  4.8km/h 51% 0.00in /  0mm
04:14 32.2 °F /  0.1 °C 16.5 °F /  -8.6 °C 30.34in /  1027.3hPa ENE 1.0mph /  1.6km/h 3.0mph /  4.8km/h 52% 0.00in /  0mm
04:19 32.3 °F /  0.2 °C 16.6 °F /  -8.6 °C 30.33in /  1027hPa ENE 1.0mph /  1.6km/h 3.0mph /  4.8km/h 52% 0.00in /  0mm
04:24 32.4 °F /  0.2 °C 16.3 °F /  -8.7 °C 30.33in /  1027hPa East 2.0mph /  3.2km/h 5.0mph /  8km/h 51% 0.00in /  0mm
04:29 32.5 °F /  0.3 °C 16.4 °F /  -8.7 °C 30.33in /  1027hPa East 2.0mph /  3.2km/h 5.0mph /  8km/h 51% 0.00in /  0mm
04:34 32.5 °F /  0.3 °C 16.4 °F /  -8.7 °C 30.33in /  1027hPa East 1.0mph /  1.6km/h 5.0mph /  8km/h 51% 0.00in /  0mm
04:39 32.7 °F /  0.4 °C 16.5 °F /  -8.6 °C 30.32in /  1026.6hPa East 1.0mph /  1.6km/h 6.0mph /  9.7km/h 51% 0.00in /  0mm
04:44 32.8 °F /  0.4 °C 17.1 °F /  -8.3 °C 30.33in /  1027hPa ENE 2.0mph /  3.2km/h 4.0mph /  6.4km/h 52% 0.00in /  0mm
04:49 33.0 °F /  0.6 °C 16.8 °F /  -8.4 °C 30.33in /  1027hPa ESE 3.0mph /  4.8km/h 4.0mph /  6.4km/h 51% 0.00in /  0mm
04:54 33.0 °F /  0.6 °C 16.8 °F /  -8.4 °C 30.32in /  1026.6hPa SE 1.0mph /  1.6km/h 6.0mph /  9.7km/h 51% 0.00in /  0mm
04:59 33.2 °F /  0.7 °C 17.0 °F /  -8.3 °C 30.32in /  1026.6hPa SE 2.0mph /  3.2km/h 5.0mph /  8km/h 51% 0.00in /  0mm
05:04 33.4 °F /  0.8 °C 17.2 °F /  -8.2 °C 30.32in /  1026.6hPa East 1.0mph /  1.6km/h 6.0mph /  9.7km/h 51% 0.00in /  0mm
05:09 33.5 °F /  0.8 °C 16.8 °F /  -8.4 °C 30.32in /  1026.6hPa ENE 4.0mph /  6.4km/h 7.0mph /  11.3km/h 50% 0.00in /  0mm
05:14 33.7 °F /  0.9 °C 17.0 °F /  -8.3 °C 30.33in /  1027hPa WSW 2.0mph /  3.2km/h 6.0mph /  9.7km/h 50% 0.00in /  0mm
05:19 33.9 °F /  1.1 °C 17.7 °F /  -7.9 °C 30.33in /  1027hPa SW 1.0mph /  1.6km/h 6.0mph /  9.7km/h 51% 0.00in /  0mm
05:24 34.0 °F /  1.1 °C 17.3 °F /  -8.2 °C 30.32in /  1026.6hPa SE 1.0mph /  1.6km/h 5.0mph /  8km/h 50% 0.00in /  0mm
05:29 34.1 °F /  1.2 °C 17.4 °F /  -8.1 °C 30.32in /  1026.6hPa East 2.0mph /  3.2km/h 5.0mph /  8km/h 50% 0.00in /  0mm
05:34 34.3 °F /  1.3 °C 18.0 °F /  -7.8 °C 30.31in /  1026.3hPa ESE 2.0mph /  3.2km/h 5.0mph /  8km/h 51% 0.00in /  0mm
05:39 34.5 °F /  1.4 °C 17.8 °F /  -7.9 °C 30.31in /  1026.3hPa ESE 2.0mph /  3.2km/h 6.0mph /  9.7km/h 50% 0.00in /  0mm
05:44 34.6 °F /  1.4 °C 17.8 °F /  -7.9 °C 30.31in /  1026.3hPa SE 3.0mph /  4.8km/h 6.0mph /  9.7km/h 50% 0.00in /  0mm
05:49 34.7 °F /  1.5 °C 17.9 °F /  -7.8 °C 30.31in /  1026.3hPa SE 1.0mph /  1.6km/h 7.0mph /  11.3km/h 50% 0.00in /  0mm
05:54 34.9 °F /  1.6 °C 18.1 °F /  -7.7 °C 30.31in /  1026.3hPa ESE 2.0mph /  3.2km/h 6.0mph /  9.7km/h 50% 0.00in /  0mm
05:59 35.1 °F /  1.7 °C 18.3 °F /  -7.6 °C 30.30in /  1026hPa SE 2.0mph /  3.2km/h 5.0mph /  8km/h 50% 0.00in /  0mm
06:04 35.2 °F /  1.8 °C 18.4 °F /  -7.6 °C 30.30in /  1026hPa SSE 5.0mph /  8km/h 6.0mph /  9.7km/h 50% 0.00in /  0mm
06:09 35.4 °F /  1.9 °C 18.6 °F /  -7.4 °C 30.29in /  1025.6hPa SE 3.0mph /  4.8km/h 6.0mph /  9.7km/h 50% 0.00in /  0mm
06:14 35.4 °F /  1.9 °C 18.6 °F /  -7.4 °C 30.29in /  1025.6hPa ESE 3.0mph /  4.8km/h 5.0mph /  8km/h 50% 0.00in /  0mm
06:19 35.7 °F /  2.1 °C 18.9 °F /  -7.3 °C 30.29in /  1025.6hPa SSE 2.0mph /  3.2km/h 6.0mph /  9.7km/h 50% 0.00in /  0mm
06:24 35.9 °F /  2.2 °C 19.0 °F /  -7.2 °C 30.29in /  1025.6hPa ESE 2.0mph /  3.2km/h 6.0mph /  9.7km/h 50% 0.00in /  0mm
06:29 35.9 °F /  2.2 °C 19.0 °F /  -7.2 °C 30.28in /  1025.3hPa ESE 2.0mph /  3.2km/h 5.0mph /  8km/h 50% 0.00in /  0mm
06:34 36.1 °F /  2.3 °C 19.2 °F /  -7.1 °C 30.28in /  1025.3hPa ESE 2.0mph /  3.2km/h 5.0mph /  8km/h 50% 0.00in /  0mm
06:39 36.2 °F /  2.3 °C 19.8 °F /  -6.8 °C 30.29in /  1025.6hPa East 1.0mph /  1.6km/h 5.0mph /  8km/h 51% 0.00in /  0mm
06:44 36.4 °F /  2.4 °C 19.5 °F /  -6.9 °C 30.29in /  1025.6hPa ESE 1.0mph /  1.6km/h 5.0mph /  8km/h 50% 0.00in /  0mm
06:49 36.6 °F /  2.6 °C 19.7 °F /  -6.8 °C 30.29in /  1025.6hPa Calm   4.0mph /  6.4km/h 50% 0.00in /  0mm
06:54 36.7 °F /  2.6 °C 20.3 °F /  -6.5 °C 30.28in /  1025.3hPa ESE 1.0mph /  1.6km/h 4.0mph /  6.4km/h 51% 0.00in /  0mm
07:04 37.0 °F /  2.8 °C 20.5 °F /  -6.4 °C 30.27in /  1024.9hPa Calm   5.0mph /  8km/h 51% 0.00in /  0mm
07:09 37.1 °F /  2.8 °C 20.6 °F /  -6.3 °C 30.27in /  1024.9hPa East 3.0mph /  4.8km/h 5.0mph /  8km/h 51% 0.00in /  0mm
07:14 37.3 °F /  2.9 °C 20.8 °F /  -6.2 °C 30.27in /  1024.9hPa East 1.0mph /  1.6km/h 5.0mph /  8km/h 51% 0.00in /  0mm
07:19 37.5 °F /  3.1 °C 20.5 °F /  -6.4 °C 30.27in /  1024.9hPa ESE 2.0mph /  3.2km/h 3.0mph /  4.8km/h 50% 0.00in /  0mm
07:24 37.9 °F /  3.3 °C 21.4 °F /  -5.9 °C 30.28in /  1025.3hPa ESE 1.0mph /  1.6km/h 3.0mph /  4.8km/h 51% 0.00in /  0mm
07:29 38.0 °F /  3.3 °C 21.0 °F /  -6.1 °C 30.27in /  1024.9hPa ESE 1.0mph /  1.6km/h 5.0mph /  8km/h 50% 0.00in /  0mm
07:34 38.2 °F /  3.4 °C 21.2 °F /  -6 °C 30.27in /  1024.9hPa ESE 1.0mph /  1.6km/h 5.0mph /  8km/h 50% 0.00in /  0mm
07:39 38.3 °F /  3.5 °C 21.3 °F /  -5.9 °C 30.27in /  1024.9hPa SE 1.0mph /  1.6km/h 4.0mph /  6.4km/h 50% 0.00in /  0mm
07:44 38.6 °F /  3.7 °C 21.5 °F /  -5.8 °C 30.27in /  1024.9hPa SE 1.0mph /  1.6km/h 4.0mph /  6.4km/h 50% 0.00in /  0mm
07:49 38.9 °F /  3.8 °C 21.8 °F /  -5.7 °C 30.27in /  1024.9hPa SE 1.0mph /  1.6km/h 4.0mph /  6.4km/h 50% 0.00in /  0mm
07:54 39.1 °F /  3.9 °C 22.0 °F /  -5.6 °C 30.27in /  1024.9hPa SE 1.0mph /  1.6km/h 4.0mph /  6.4km/h 50% 0.00in /  0mm
07:59 39.4 °F /  4.1 °C 21.8 °F /  -5.7 °C 30.27in /  1024.9hPa SE 3.0mph /  4.8km/h 4.0mph /  6.4km/h 49% 0.00in /  0mm
08:04 39.6 °F /  4.2 °C 22.0 °F /  -5.6 °C 30.27in /  1024.9hPa ESE 2.0mph /  3.2km/h 4.0mph /  6.4km/h 49% 0.00in /  0mm
08:09 40.0 °F /  4.4 °C 22.4 °F /  -5.3 °C 30.27in /  1024.9hPa SE 3.0mph /  4.8km/h 5.0mph /  8km/h 49% 0.00in /  0mm
08:14 40.3 °F /  4.6 °C 22.6 °F /  -5.2 °C 30.27in /  1024.9hPa SE 1.0mph /  1.6km/h 4.0mph /  6.4km/h 49% 0.00in /  0mm
08:19 40.6 °F /  4.8 °C 22.9 °F /  -5.1 °C 30.27in /  1024.9hPa South 1.0mph /  1.6km/h 5.0mph /  8km/h 49% 0.00in /  0mm
08:24 40.8 °F /  4.9 °C 23.1 °F /  -4.9 °C 30.27in /  1024.9hPa SE 1.0mph /  1.6km/h 3.0mph /  4.8km/h 49% 0.00in /  0mm
08:29 41.1 °F /  5.1 °C 22.9 °F /  -5.1 °C 30.27in /  1024.9hPa Calm   3.0mph /  4.8km/h 48% 0.00in /  0mm
08:34 41.5 °F /  5.3 °C 23.7 °F /  -4.6 °C 30.27in /  1024.9hPa SE 1.0mph /  1.6km/h 3.0mph /  4.8km/h 49% 0.00in /  0mm
08:39 41.9 °F /  5.5 °C 24.1 °F /  -4.4 °C 30.27in /  1024.9hPa SE 1.0mph /  1.6km/h 2.0mph /  3.2km/h 49% 0.00in /  0mm
08:44 42.2 °F /  5.7 °C 23.4 °F /  -4.8 °C 30.27in /  1024.9hPa SE 1.0mph /  1.6km/h 3.0mph /  4.8km/h 47% 0.00in /  0mm
08:49 42.6 °F /  5.9 °C 24.3 °F /  -4.3 °C 30.26in /  1024.6hPa SE 2.0mph /  3.2km/h 5.0mph /  8km/h 48% 0.00in /  0mm
08:54 43.0 °F /  6.1 °C 24.1 °F /  -4.4 °C 30.27in /  1024.9hPa SE 2.0mph /  3.2km/h 5.0mph /  8km/h 47% 0.00in /  0mm
08:59 43.5 °F /  6.4 °C 24.6 °F /  -4.1 °C 30.27in /  1024.9hPa Calm   3.0mph /  4.8km/h 47% 0.00in /  0mm
09:04 44.1 °F /  6.7 °C 24.6 °F /  -4.1 °C 30.27in /  1024.9hPa SSE 1.0mph /  1.6km/h 3.0mph /  4.8km/h 46% 0.00in /  0mm
09:09 44.5 °F /  6.9 °C 25.0 °F /  -3.9 °C 30.27in /  1024.9hPa South 1.0mph /  1.6km/h 4.0mph /  6.4km/h 46% 0.00in /  0mm
09:14 44.8 °F /  7.1 °C 25.3 °F /  -3.7 °C 30.27in /  1024.9hPa South 1.0mph /  1.6km/h 4.0mph /  6.4km/h 46% 0.00in /  0mm
09:19 45.2 °F /  7.3 °C 25.1 °F /  -3.8 °C 30.27in /  1024.9hPa Calm   2.0mph /  3.2km/h 45% 0.00in /  0mm
09:24 45.5 °F /  7.5 °C 25.4 °F /  -3.7 °C 30.27in /  1024.9hPa South 1.0mph /  1.6km/h 3.0mph /  4.8km/h 45% 0.00in /  0mm
09:29 46.5 °F /  8.1 °C 26.3 °F /  -3.2 °C 30.27in /  1024.9hPa South 1.0mph /  1.6km/h 3.0mph /  4.8km/h 45% 0.00in /  0mm
09:34 47.5 °F /  8.6 °C 26.6 °F /  -3 °C 30.27in /  1024.9hPa South 1.0mph /  1.6km/h 3.0mph /  4.8km/h 44% 0.00in /  0mm
09:39 48.0 °F /  8.9 °C 27.1 °F /  -2.7 °C 30.27in /  1024.9hPa SSW 2.0mph /  3.2km/h 5.0mph /  8km/h 44% 0.00in /  0mm
09:44 48.1 °F /  8.9 °C 26.6 °F /  -3 °C 30.27in /  1024.9hPa SSW 2.0mph /  3.2km/h 5.0mph /  8km/h 43% 0.00in /  0mm
09:49 48.1 °F /  8.9 °C 27.2 °F /  -2.7 °C 30.27in /  1024.9hPa SSW 2.0mph /  3.2km/h 5.0mph /  8km/h 44% 0.00in /  0mm
09:54 47.9 °F /  8.8 °C 26.5 °F /  -3.1 °C 30.27in /  1024.9hPa SSW 2.0mph /  3.2km/h 5.0mph /  8km/h 43% 0.00in /  0mm
09:59 47.8 °F /  8.8 °C 26.4 °F /  -3.1 °C 30.27in /  1024.9hPa SW 1.0mph /  1.6km/h 4.0mph /  6.4km/h 43% 0.00in /  0mm
10:04 47.8 °F /  8.8 °C 27.5 °F /  -2.5 °C 30.27in /  1024.9hPa Calm   3.0mph /  4.8km/h 45% 0.00in /  0mm
10:09 48.0 °F /  8.9 °C 27.1 °F /  -2.7 °C 30.27in /  1024.9hPa SSW 1.0mph /  1.6km/h 4.0mph /  6.4km/h 44% 0.00in /  0mm
10:14 48.5 °F /  9.2 °C 28.6 °F /  -1.9 °C 30.27in /  1024.9hPa SSW 1.0mph /  1.6km/h 4.0mph /  6.4km/h 46% 0.00in /  0mm
10:19 49.1 °F /  9.5 °C 28.1 °F /  -2.2 °C 30.26in /  1024.6hPa SSW 1.0mph /  1.6km/h 3.0mph /  4.8km/h 44% 0.00in /  0mm
10:24 50.0 °F /  10 °C 28.9 °F /  -1.7 °C 30.26in /  1024.6hPa South 2.0mph /  3.2km/h 5.0mph /  8km/h 44% 0.00in /  0mm
10:29 51.1 °F /  10.6 °C 29.4 °F /  -1.4 °C 30.26in /  1024.6hPa South 3.0mph /  4.8km/h 6.0mph /  9.7km/h 43% 0.00in /  0mm
10:34 51.7 °F /  10.9 °C 29.3 °F /  -1.5 °C 30.26in /  1024.6hPa South 3.0mph /  4.8km/h 5.0mph /  8km/h 42% 0.00in /  0mm
10:39 52.0 °F /  11.1 °C 29.6 °F /  -1.3 °C 30.25in /  1024.3hPa SSW 2.0mph /  3.2km/h 7.0mph /  11.3km/h 42% 0.00in /  0mm
10:44 52.6 °F /  11.4 °C 29.5 °F /  -1.4 °C 30.25in /  1024.3hPa SSW 4.0mph /  6.4km/h 8.0mph /  12.9km/h 41% 0.00in /  0mm
10:49 53.1 °F /  11.7 °C 30.0 °F /  -1.1 °C 30.25in /  1024.3hPa SSW 4.0mph /  6.4km/h 8.0mph /  12.9km/h 41% 0.00in /  0mm
10:54 53.5 °F /  11.9 °C 31.0 °F /  -0.6 °C 30.25in /  1024.3hPa SSW 3.0mph /  4.8km/h 7.0mph /  11.3km/h 42% 0.00in /  0mm
10:59 53.8 °F /  12.1 °C 30.6 °F /  -0.8 °C 30.25in /  1024.3hPa SSW 3.0mph /  4.8km/h 8.0mph /  12.9km/h 41% 0.00in /  0mm
11:04 53.9 °F /  12.2 °C 30.1 °F /  -1.1 °C 30.25in /  1024.3hPa SSW 4.0mph /  6.4km/h 8.0mph /  12.9km/h 40% 0.00in /  0mm
11:09 55.3 °F /  12.9 °C 31.4 °F /  -0.3 °C 30.24in /  1023.9hPa South 3.0mph /  4.8km/h 8.0mph /  12.9km/h 40% 0.00in /  0mm
11:14 56.7 °F /  13.7 °C 32.0 °F /  0 °C 30.24in /  1023.9hPa WSW 5.0mph /  8km/h 11.0mph /  17.7km/h 39% 0.00in /  0mm
11:19 58.0 °F /  14.4 °C 32.5 °F /  0.3 °C 30.24in /  1023.9hPa SSW 6.0mph /  9.7km/h 9.0mph /  14.5km/h 38% 0.00in /  0mm
11:24 57.7 °F /  14.3 °C 33.5 °F /  0.8 °C 30.24in /  1023.9hPa SW 5.0mph /  8km/h 10.0mph /  16.1km/h 40% 0.00in /  0mm
11:29 57.4 °F /  14.1 °C 32.6 °F /  0.3 °C 30.24in /  1023.9hPa SW 5.0mph /  8km/h 12.0mph /  19.3km/h 39% 0.00in /  0mm
11:34 57.4 °F /  14.1 °C 32.6 °F /  0.3 °C 30.24in /  1023.9hPa SW 6.0mph /  9.7km/h 12.0mph /  19.3km/h 39% 0.00in /  0mm
11:39 57.4 °F /  14.1 °C 33.9 °F /  1.1 °C 30.23in /  1023.6hPa WSW 6.0mph /  9.7km/h 12.0mph /  19.3km/h 41% 0.00in /  0mm
11:44 57.9 °F /  14.4 °C 34.3 °F /  1.3 °C 30.23in /  1023.6hPa WSW 3.0mph /  4.8km/h 12.0mph /  19.3km/h 41% 0.00in /  0mm
11:49 58.2 °F /  14.6 °C 34.6 °F /  1.4 °C 30.23in /  1023.6hPa SSW 6.0mph /  9.7km/h 13.0mph /  20.9km/h 41% 0.00in /  0mm
11:54 58.2 °F /  14.6 °C 34.6 °F /  1.4 °C 30.23in /  1023.6hPa WSW 4.0mph /  6.4km/h 13.0mph /  20.9km/h 41% 0.00in /  0mm
11:59 58.2 °F /  14.6 °C 34.6 °F /  1.4 °C 30.23in /  1023.6hPa SW 7.0mph /  11.3km/h 14.0mph /  22.5km/h 41% 0.00in /  0mm
12:04 58.5 °F /  14.7 °C 35.5 °F /  1.9 °C 30.23in /  1023.6hPa SW 7.0mph /  11.3km/h 14.0mph /  22.5km/h 42% 0.00in /  0mm
12:09 59.3 °F /  15.2 °C 35.0 °F /  1.7 °C 30.23in /  1023.6hPa SW 7.0mph /  11.3km/h 16.0mph /  25.7km/h 40% 0.00in /  0mm
12:14 58.3 °F /  14.6 °C 34.7 °F /  1.5 °C 30.23in /  1023.6hPa SW 7.0mph /  11.3km/h 16.0mph /  25.7km/h 41% 0.00in /  0mm
12:19 58.3 °F /  14.6 °C 34.7 °F /  1.5 °C 30.22in /  1023.2hPa South 7.0mph /  11.3km/h 15.0mph /  24.1km/h 41% 0.00in /  0mm
12:24 58.3 °F /  14.6 °C 35.3 °F /  1.8 °C 30.22in /  1023.2hPa WNW 5.0mph /  8km/h 12.0mph /  19.3km/h 42% 0.00in /  0mm
12:29 58.2 °F /  14.6 °C 35.8 °F /  2.1 °C 30.22in /  1023.2hPa WSW 6.0mph /  9.7km/h 14.0mph /  22.5km/h 43% 0.00in /  0mm
12:34 59.9 °F /  15.5 °C 36.7 °F /  2.6 °C 30.22in /  1023.2hPa SW 6.0mph /  9.7km/h 15.0mph /  24.1km/h 42% 0.00in /  0mm
12:39 59.7 °F /  15.4 °C 37.7 °F /  3.2 °C 30.22in /  1023.2hPa SW 6.0mph /  9.7km/h 15.0mph /  24.1km/h 44% 0.00in /  0mm
12:44 59.7 °F /  15.4 °C 36.6 °F /  2.6 °C 30.21in /  1022.9hPa SW 7.0mph /  11.3km/h 13.0mph /  20.9km/h 42% 0.00in /  0mm
12:49 58.9 °F /  14.9 °C 35.8 °F /  2.1 °C 30.21in /  1022.9hPa SSW 3.0mph /  4.8km/h 14.0mph /  22.5km/h 42% 0.00in /  0mm
12:54 58.2 °F /  14.6 °C 35.8 °F /  2.1 °C 30.21in /  1022.9hPa SW 11.0mph /  17.7km/h 15.0mph /  24.1km/h 43% 0.00in /  0mm
12:59 58.2 °F /  14.6 °C 36.9 °F /  2.7 °C 30.21in /  1022.9hPa WSW 6.0mph /  9.7km/h 12.0mph /  19.3km/h 45% 0.00in /  0mm
13:04 58.5 °F /  14.7 °C 36.1 °F /  2.3 °C 30.21in /  1022.9hPa SW 6.0mph /  9.7km/h 12.0mph /  19.3km/h 43% 0.00in /  0mm
13:09 58.0 °F /  14.4 °C 36.8 °F /  2.7 °C 30.20in /  1022.6hPa SW 6.0mph /  9.7km/h 15.0mph /  24.1km/h 45% 0.00in /  0mm
13:14 57.8 °F /  14.3 °C 37.7 °F /  3.2 °C 30.20in /  1022.6hPa SW 6.0mph /  9.7km/h 15.0mph /  24.1km/h 47% 0.00in /  0mm
13:19 57.5 °F /  14.2 °C 37.4 °F /  3 °C 30.20in /  1022.6hPa SW 5.0mph /  8km/h 10.0mph /  16.1km/h 47% 0.00in /  0mm
13:24 57.8 °F /  14.3 °C 36.6 °F /  2.6 °C 30.20in /  1022.6hPa SW 5.0mph /  8km/h 11.0mph /  17.7km/h 45% 0.00in /  0mm
13:29 57.5 °F /  14.2 °C 35.7 °F /  2.1 °C 30.19in /  1022.2hPa SSW 5.0mph /  8km/h 10.0mph /  16.1km/h 44% 0.00in /  0mm
13:34 57.7 °F /  14.3 °C 35.9 °F /  2.2 °C 30.19in /  1022.2hPa SW 8.0mph /  12.9km/h 10.0mph /  16.1km/h 44% 0.00in /  0mm
13:39 57.7 °F /  14.3 °C 35.3 °F /  1.8 °C 30.19in /  1022.2hPa SSW 5.0mph /  8km/h 11.0mph /  17.7km/h 43% 0.00in /  0mm
13:44 58.0 °F /  14.4 °C 35.0 °F /  1.7 °C 30.19in /  1022.2hPa SSW 5.0mph /  8km/h 11.0mph /  17.7km/h 42% 0.00in /  0mm
13:49 58.0 °F /  14.4 °C 35.0 °F /  1.7 °C 30.19in /  1022.2hPa SW 7.0mph /  11.3km/h 12.0mph /  19.3km/h 42% 0.00in /  0mm
13:54 57.6 °F /  14.2 °C 34.7 °F /  1.5 °C 30.20in /  1022.6hPa SSW 3.0mph /  4.8km/h 12.0mph /  19.3km/h 42% 0.00in /  0mm
13:59 57.6 °F /  14.2 °C 35.2 °F /  1.8 °C 30.20in /  1022.6hPa WSW 2.0mph /  3.2km/h 9.0mph /  14.5km/h 43% 0.00in /  0mm
14:04 57.3 °F /  14.1 °C 36.1 °F /  2.3 °C 30.20in /  1022.6hPa SW 5.0mph /  8km/h 11.0mph /  17.7km/h 45% 0.00in /  0mm
14:05 57.3 °F /  14.1 °C 36.1 °F /  2.3 °C 30.20in /  1022.6hPa SW 3.0mph /  4.8km/h 11.0mph /  17.7km/h 45% 0.00in /  0mm
14:14 56.3 °F /  13.5 °C 36.8 °F /  2.7 °C 30.19in /  1022.2hPa SW 5.0mph /  8km/h 14.0mph /  22.5km/h 48% 0.00in /  0mm
14:19 55.9 °F /  13.3 °C 38.5 °F /  3.6 °C 30.19in /  1022.2hPa SW 6.0mph /  9.7km/h 14.0mph /  22.5km/h 52% 0.00in /  0mm
14:24 55.4 °F /  13 °C 39.5 °F /  4.2 °C 30.19in /  1022.2hPa SW 5.0mph /  8km/h 8.0mph /  12.9km/h 55% 0.00in /  0mm
14:29 55.2 °F /  12.9 °C 37.9 °F /  3.3 °C 30.19in /  1022.2hPa SW 5.0mph /  8km/h 9.0mph /  14.5km/h 52% 0.00in /  0mm
14:34 55.4 °F /  13 °C 38.1 °F /  3.4 °C 30.19in /  1022.2hPa SSW 7.0mph /  11.3km/h 9.0mph /  14.5km/h 52% 0.00in /  0mm
14:39 55.5 °F /  13.1 °C 39.6 °F /  4.2 °C 30.19in /  1022.2hPa SSW 7.0mph /  11.3km/h 12.0mph /  19.3km/h 55% 0.00in /  0mm
14:44 55.4 °F /  13 °C 40.0 °F /  4.4 °C 30.19in /  1022.2hPa SSW 5.0mph /  8km/h 12.0mph /  19.3km/h 56% 0.00in /  0mm
14:49 55.4 °F /  13 °C 40.9 °F /  4.9 °C 30.19in /  1022.2hPa SSW 5.0mph /  8km/h 13.0mph /  20.9km/h 58% 0.00in /  0mm
14:54 55.8 °F /  13.2 °C 40.8 °F /  4.9 °C 30.18in /  1021.9hPa SSW 5.0mph /  8km/h 13.0mph /  20.9km/h 57% 0.00in /  0mm
14:59 56.9 °F /  13.8 °C 40.4 °F /  4.7 °C 30.18in /  1021.9hPa South 5.0mph /  8km/h 10.0mph /  16.1km/h 54% 0.00in /  0mm
15:04 57.2 °F /  14 °C 40.2 °F /  4.6 °C 30.18in /  1021.9hPa South 9.0mph /  14.5km/h 11.0mph /  17.7km/h 53% 0.00in /  0mm
15:09 57.5 °F /  14.2 °C 40.5 °F /  4.7 °C 30.18in /  1021.9hPa South 7.0mph /  11.3km/h 9.0mph /  14.5km/h 53% 0.00in /  0mm
15:14 57.9 °F /  14.4 °C 40.4 °F /  4.7 °C 30.17in /  1021.6hPa SSE 10.0mph /  16.1km/h 12.0mph /  19.3km/h 52% 0.00in /  0mm
15:19 57.6 °F /  14.2 °C 39.6 °F /  4.2 °C 30.17in /  1021.6hPa South 6.0mph /  9.7km/h 12.0mph /  19.3km/h 51% 0.00in /  0mm
15:24 56.9 °F /  13.8 °C 39.4 °F /  4.1 °C 30.17in /  1021.6hPa South 6.0mph /  9.7km/h 12.0mph /  19.3km/h 52% 0.00in /  0mm
15:29 56.7 °F /  13.7 °C 40.2 °F /  4.6 °C 30.17in /  1021.6hPa South 6.0mph /  9.7km/h 10.0mph /  16.1km/h 54% 0.00in /  0mm
15:34 56.7 °F /  13.7 °C 40.7 °F /  4.8 °C 30.17in /  1021.6hPa SW 7.0mph /  11.3km/h 13.0mph /  20.9km/h 55% 0.00in /  0mm
15:39 57.3 °F /  14.1 °C 41.3 °F /  5.2 °C 30.17in /  1021.6hPa South 6.0mph /  9.7km/h 11.0mph /  17.7km/h 55% 0.00in /  0mm
15:44 57.1 °F /  13.9 °C 41.1 °F /  5.1 °C 30.16in /  1021.2hPa SW 8.0mph /  12.9km/h 11.0mph /  17.7km/h 55% 0.00in /  0mm
15:49 57.0 °F /  13.9 °C 41.0 °F /  5 °C 30.17in /  1021.6hPa SSW 5.0mph /  8km/h 11.0mph /  17.7km/h 55% 0.00in /  0mm
15:54 56.8 °F /  13.8 °C 41.7 °F /  5.4 °C 30.17in /  1021.6hPa SSW 5.0mph /  8km/h 10.0mph /  16.1km/h 57% 0.00in /  0mm
15:59 56.8 °F /  13.8 °C 41.7 °F /  5.4 °C 30.17in /  1021.6hPa SSW 4.0mph /  6.4km/h 8.0mph /  12.9km/h 57% 0.00in /  0mm
16:04 56.6 °F /  13.7 °C 41.5 °F /  5.3 °C 30.16in /  1021.2hPa SSW 4.0mph /  6.4km/h 12.0mph /  19.3km/h 57% 0.00in /  0mm
16:09 56.4 °F /  13.6 °C 41.3 °F /  5.2 °C 30.16in /  1021.2hPa SSW 5.0mph /  8km/h 12.0mph /  19.3km/h 57% 0.00in /  0mm
16:14 56.2 °F /  13.4 °C 41.6 °F /  5.3 °C 30.16in /  1021.2hPa SSW 7.0mph /  11.3km/h 11.0mph /  17.7km/h 58% 0.00in /  0mm
16:19 56.0 °F /  13.3 °C 41.4 °F /  5.2 °C 30.16in /  1021.2hPa South 3.0mph /  4.8km/h 10.0mph /  16.1km/h 58% 0.00in /  0mm
16:24 56.0 °F /  13.3 °C 41.9 °F /  5.5 °C 30.16in /  1021.2hPa SSW 5.0mph /  8km/h 10.0mph /  16.1km/h 59% 0.00in /  0mm
16:29 56.0 °F /  13.3 °C 41.9 °F /  5.5 °C 30.16in /  1021.2hPa SSW 5.0mph /  8km/h 9.0mph /  14.5km/h 59% 0.00in /  0mm
16:34 56.0 °F /  13.3 °C 41.9 °F /  5.5 °C 30.16in /  1021.2hPa SSW 4.0mph /  6.4km/h 9.0mph /  14.5km/h 59% 0.00in /  0mm
16:39 56.0 °F /  13.3 °C 41.9 °F /  5.5 °C 30.16in /  1021.2hPa South 4.0mph /  6.4km/h 8.0mph /  12.9km/h 59% 0.00in /  0mm
16:44 56.0 °F /  13.3 °C 41.9 °F /  5.5 °C 30.16in /  1021.2hPa South 3.0mph /  4.8km/h 7.0mph /  11.3km/h 59% 0.00in /  0mm
16:49 56.0 °F /  13.3 °C 41.9 °F /  5.5 °C 30.16in /  1021.2hPa South 4.0mph /  6.4km/h 10.0mph /  16.1km/h 59% 0.00in /  0mm
16:54 56.0 °F /  13.3 °C 41.9 °F /  5.5 °C 30.16in /  1021.2hPa South 5.0mph /  8km/h 10.0mph /  16.1km/h 59% 0.00in /  0mm
16:59 56.0 °F /  13.3 °C 42.3 °F /  5.7 °C 30.16in /  1021.2hPa SSW 6.0mph /  9.7km/h 10.0mph /  16.1km/h 60% 0.00in /  0mm
17:04 55.9 °F /  13.3 °C 42.2 °F /  5.7 °C 30.16in /  1021.2hPa South 5.0mph /  8km/h 10.0mph /  16.1km/h 60% 0.00in /  0mm
17:09 55.8 °F /  13.2 °C 42.1 °F /  5.6 °C 30.16in /  1021.2hPa South 4.0mph /  6.4km/h 9.0mph /  14.5km/h 60% 0.00in /  0mm
17:14 55.9 °F /  13.3 °C 42.2 °F /  5.7 °C 30.16in /  1021.2hPa South 4.0mph /  6.4km/h 8.0mph /  12.9km/h 60% 0.00in /  0mm
17:19 55.7 °F /  13.2 °C 42.0 °F /  5.6 °C 30.16in /  1021.2hPa South 5.0mph /  8km/h 10.0mph /  16.1km/h 60% 0.00in /  0mm
17:24 55.7 °F /  13.2 °C 42.0 °F /  5.6 °C 30.15in /  1020.9hPa South 5.0mph /  8km/h 11.0mph /  17.7km/h 60% 0.00in /  0mm
17:29 55.3 °F /  12.9 °C 41.6 °F /  5.3 °C 30.15in /  1020.9hPa SSW 5.0mph /  8km/h 7.0mph /  11.3km/h 60% 0.00in /  0mm
17:34 55.2 °F /  12.9 °C 42.0 °F /  5.6 °C 30.15in /  1020.9hPa South 4.0mph /  6.4km/h 9.0mph /  14.5km/h 61% 0.00in /  0mm
17:39 55.0 °F /  12.8 °C 41.8 °F /  5.4 °C 30.15in /  1020.9hPa SW 4.0mph /  6.4km/h 8.0mph /  12.9km/h 61% 0.00in /  0mm
17:44 54.9 °F /  12.7 °C 41.7 °F /  5.4 °C 30.15in /  1020.9hPa SSE 4.0mph /  6.4km/h 9.0mph /  14.5km/h 61% 0.00in /  0mm
17:49 54.9 °F /  12.7 °C 41.7 °F /  5.4 °C 30.15in /  1020.9hPa South 6.0mph /  9.7km/h 8.0mph /  12.9km/h 61% 0.00in /  0mm
17:54 54.8 °F /  12.7 °C 41.6 °F /  5.3 °C 30.15in /  1020.9hPa South 6.0mph /  9.7km/h 9.0mph /  14.5km/h 61% 0.00in /  0mm
17:59 54.7 °F /  12.6 °C 41.9 °F /  5.5 °C 30.15in /  1020.9hPa South 5.0mph /  8km/h 9.0mph /  14.5km/h 62% 0.00in /  0mm
18:04 54.5 °F /  12.5 °C 41.7 °F /  5.4 °C 30.15in /  1020.9hPa South 4.0mph /  6.4km/h 9.0mph /  14.5km/h 62% 0.00in /  0mm
18:09 54.5 °F /  12.5 °C 42.2 °F /  5.7 °C 30.15in /  1020.9hPa South 4.0mph /  6.4km/h 11.0mph /  17.7km/h 63% 0.00in /  0mm
18:14 54.5 °F /  12.5 °C 42.2 °F /  5.7 °C 30.15in /  1020.9hPa SSW 5.0mph /  8km/h 11.0mph /  17.7km/h 63% 0.00in /  0mm
18:19 54.5 °F /  12.5 °C 42.2 °F /  5.7 °C 30.15in /  1020.9hPa SSW 6.0mph /  9.7km/h 11.0mph /  17.7km/h 63% 0.00in /  0mm
18:24 54.5 °F /  12.5 °C 42.2 °F /  5.7 °C 30.15in /  1020.9hPa South 6.0mph /  9.7km/h 13.0mph /  20.9km/h 63% 0.00in /  0mm
18:29 54.3 °F /  12.4 °C 42.4 °F /  5.8 °C 30.15in /  1020.9hPa South 7.0mph /  11.3km/h 11.0mph /  17.7km/h 64% 0.00in /  0mm
18:34 54.4 °F /  12.4 °C 42.5 °F /  5.8 °C 30.15in /  1020.9hPa South 6.0mph /  9.7km/h 14.0mph /  22.5km/h 64% 0.00in /  0mm
18:39 54.4 °F /  12.4 °C 42.9 °F /  6.1 °C 30.15in /  1020.9hPa South 11.0mph /  17.7km/h 16.0mph /  25.7km/h 65% 0.00in /  0mm
18:44 54.5 °F /  12.5 °C 43.0 °F /  6.1 °C 30.14in /  1020.5hPa SSW 7.0mph /  11.3km/h 14.0mph /  22.5km/h 65% 0.00in /  0mm
18:49 54.3 °F /  12.4 °C 42.8 °F /  6 °C 30.15in /  1020.9hPa South 6.0mph /  9.7km/h 9.0mph /  14.5km/h 65% 0.00in /  0mm
18:54 54.3 °F /  12.4 °C 43.2 °F /  6.2 °C 30.14in /  1020.5hPa South 3.0mph /  4.8km/h 15.0mph /  24.1km/h 66% 0.00in /  0mm
18:59 54.2 °F /  12.3 °C 43.1 °F /  6.2 °C 30.14in /  1020.5hPa SSW 6.0mph /  9.7km/h 12.0mph /  19.3km/h 66% 0.00in /  0mm
19:04 54.1 °F /  12.3 °C 43.0 °F /  6.1 °C 30.14in /  1020.5hPa SSW 7.0mph /  11.3km/h 12.0mph /  19.3km/h 66% 0.00in /  0mm
19:09 54.1 °F /  12.3 °C 43.4 °F /  6.3 °C 30.14in /  1020.5hPa SSW 6.0mph /  9.7km/h 14.0mph /  22.5km/h 67% 0.00in /  0mm
19:14 54.0 °F /  12.2 °C 43.3 °F /  6.3 °C 30.15in /  1020.9hPa SSW 7.0mph /  11.3km/h 14.0mph /  22.5km/h 67% 0.00in /  0mm
19:19 53.9 °F /  12.2 °C 43.2 °F /  6.2 °C 30.14in /  1020.5hPa SSW 6.0mph /  9.7km/h 13.0mph /  20.9km/h 67% 0.00in /  0mm
19:24 53.9 °F /  12.2 °C 43.6 °F /  6.4 °C 30.15in /  1020.9hPa SSW 6.0mph /  9.7km/h 15.0mph /  24.1km/h 68% 0.00in /  0mm
19:29 53.9 °F /  12.2 °C 44.0 °F /  6.7 °C 30.15in /  1020.9hPa SSE 7.0mph /  11.3km/h 17.0mph /  27.4km/h 69% 0.00in /  0mm
19:34 53.8 °F /  12.1 °C 43.9 °F /  6.6 °C 30.15in /  1020.9hPa South 5.0mph /  8km/h 13.0mph /  20.9km/h 69% 0.00in /  0mm
19:39 53.7 °F /  12.1 °C 43.8 °F /  6.6 °C 30.15in /  1020.9hPa SSW 6.0mph /  9.7km/h 13.0mph /  20.9km/h 69% 0.00in /  0mm
19:44 53.6 °F /  12 °C 44.0 °F /  6.7 °C 30.15in /  1020.9hPa WSW 5.0mph /  8km/h 15.0mph /  24.1km/h 70% 0.00in /  0mm
19:49 53.5 °F /  11.9 °C 44.0 °F /  6.7 °C 30.14in /  1020.5hPa SSW 10.0mph /  16.1km/h 15.0mph /  24.1km/h 70% 0.00in /  0mm
19:54 53.4 °F /  11.9 °C 44.2 °F /  6.8 °C 30.14in /  1020.5hPa SSE 6.0mph /  9.7km/h 14.0mph /  22.5km/h 71% 0.00in /  0mm
19:59 53.2 °F /  11.8 °C 44.4 °F /  6.9 °C 30.14in /  1020.5hPa SSW 5.0mph /  8km/h 12.0mph /  19.3km/h 72% 0.00in /  0mm
20:04 52.9 °F /  11.6 °C 44.1 °F /  6.7 °C 30.14in /  1020.5hPa South 8.0mph /  12.9km/h 17.0mph /  27.4km/h 72% 0.00in /  0mm
20:09 52.8 °F /  11.6 °C 44.4 °F /  6.9 °C 30.14in /  1020.5hPa SSW 6.0mph /  9.7km/h 17.0mph /  27.4km/h 73% 0.00in /  0mm
20:14 52.7 °F /  11.5 °C 44.6 °F /  7 °C 30.14in /  1020.5hPa SSW 7.0mph /  11.3km/h 13.0mph /  20.9km/h 74% 0.00in /  0mm
20:19 52.6 °F /  11.4 °C 44.5 °F /  6.9 °C 30.14in /  1020.5hPa SSW 7.0mph /  11.3km/h 13.0mph /  20.9km/h 74% 0.00in /  0mm
20:24 52.5 °F /  11.4 °C 44.4 °F /  6.9 °C 30.14in /  1020.5hPa SSW 4.0mph /  6.4km/h 15.0mph /  24.1km/h 74% 0.00in /  0mm
20:29 52.3 °F /  11.3 °C 44.6 °F /  7 °C 30.14in /  1020.5hPa SSW 6.0mph /  9.7km/h 15.0mph /  24.1km/h 75% 0.00in /  0mm
20:34 52.3 °F /  11.3 °C 44.6 °F /  7 °C 30.14in /  1020.5hPa SSW 6.0mph /  9.7km/h 14.0mph /  22.5km/h 75% 0.00in /  0mm
20:39 52.2 °F /  11.2 °C 44.5 °F /  6.9 °C 30.13in /  1020.2hPa SW 9.0mph /  14.5km/h 11.0mph /  17.7km/h 75% 0.00in /  0mm
20:44 52.2 °F /  11.2 °C 44.5 °F /  6.9 °C 30.13in /  1020.2hPa SSW 6.0mph /  9.7km/h 12.0mph /  19.3km/h 75% 0.00in /  0mm
20:49 52.1 °F /  11.2 °C 44.4 °F /  6.9 °C 30.13in /  1020.2hPa South 14.0mph /  22.5km/h 14.0mph /  22.5km/h 75% 0.00in /  0mm
20:54 52.2 °F /  11.2 °C 44.5 °F /  6.9 °C 30.13in /  1020.2hPa SSW 6.0mph /  9.7km/h 14.0mph /  22.5km/h 75% 0.00in /  0mm
20:59 52.0 °F /  11.1 °C 44.3 °F /  6.8 °C 30.13in /  1020.2hPa South 5.0mph /  8km/h 13.0mph /  20.9km/h 75% 0.00in /  0mm
21:04 52.0 °F /  11.1 °C 44.7 °F /  7.1 °C 30.13in /  1020.2hPa South 3.0mph /  4.8km/h 10.0mph /  16.1km/h 76% 0.00in /  0mm
21:09 52.1 °F /  11.2 °C 44.4 °F /  6.9 °C 30.13in /  1020.2hPa WSW 4.0mph /  6.4km/h 15.0mph /  24.1km/h 75% 0.00in /  0mm
21:14 52.2 °F /  11.2 °C 44.5 °F /  6.9 °C 30.13in /  1020.2hPa South 6.0mph /  9.7km/h 14.0mph /  22.5km/h 75% 0.00in /  0mm
21:19 52.3 °F /  11.3 °C 44.6 °F /  7 °C 30.12in /  1019.9hPa SSW 6.0mph /  9.7km/h 14.0mph /  22.5km/h 75% 0.00in /  0mm
21:24 52.3 °F /  11.3 °C 44.6 °F /  7 °C 30.12in /  1019.9hPa SSW 7.0mph /  11.3km/h 13.0mph /  20.9km/h 75% 0.00in /  0mm
21:29 52.4 °F /  11.3 °C 44.7 °F /  7.1 °C 30.12in /  1019.9hPa SSW 7.0mph /  11.3km/h 13.0mph /  20.9km/h 75% 0.00in /  0mm
21:34 52.3 °F /  11.3 °C 45.0 °F /  7.2 °C 30.12in /  1019.9hPa SSW 7.0mph /  11.3km/h 13.0mph /  20.9km/h 76% 0.00in /  0mm
21:39 52.3 °F /  11.3 °C 45.0 °F /  7.2 °C 30.12in /  1019.9hPa South 5.0mph /  8km/h 11.0mph /  17.7km/h 76% 0.00in /  0mm
21:44 52.2 °F /  11.2 °C 44.9 °F /  7.2 °C 30.11in /  1019.5hPa South 8.0mph /  12.9km/h 15.0mph /  24.1km/h 76% 0.00in /  0mm
21:49 52.2 °F /  11.2 °C 44.9 °F /  7.2 °C 30.11in /  1019.5hPa SSW 6.0mph /  9.7km/h 15.0mph /  24.1km/h 76% 0.00in /  0mm
21:54 52.2 °F /  11.2 °C 44.9 °F /  7.2 °C 30.11in /  1019.5hPa SSW 7.0mph /  11.3km/h 8.0mph /  12.9km/h 76% 0.00in /  0mm
21:59 52.2 °F /  11.2 °C 44.9 °F /  7.2 °C 30.11in /  1019.5hPa SSW 5.0mph /  8km/h 13.0mph /  20.9km/h 76% 0.00in /  0mm
22:04 52.3 °F /  11.3 °C 45.0 °F /  7.2 °C 30.11in /  1019.5hPa South 4.0mph /  6.4km/h 13.0mph /  20.9km/h 76% 0.00in /  0mm
22:09 52.2 °F /  11.2 °C 45.2 °F /  7.3 °C 30.11in /  1019.5hPa SSW 7.0mph /  11.3km/h 11.0mph /  17.7km/h 77% 0.00in /  0mm
22:14 52.2 °F /  11.2 °C 45.2 °F /  7.3 °C 30.10in /  1019.2hPa SW 4.0mph /  6.4km/h 10.0mph /  16.1km/h 77% 0.00in /  0mm
22:19 52.3 °F /  11.3 °C 45.3 °F /  7.4 °C 30.10in /  1019.2hPa SSW 5.0mph /  8km/h 14.0mph /  22.5km/h 77% 0.00in /  0mm
22:24 52.4 °F /  11.3 °C 45.4 °F /  7.4 °C 30.10in /  1019.2hPa SSW 6.0mph /  9.7km/h 14.0mph /  22.5km/h 77% 0.00in /  0mm
22:29 52.5 °F /  11.4 °C 45.5 °F /  7.5 °C 30.10in /  1019.2hPa SSW 5.0mph /  8km/h 13.0mph /  20.9km/h 77% 0.00in /  0mm
22:34 52.5 °F /  11.4 °C 45.5 °F /  7.5 °C 30.10in /  1019.2hPa SSW 4.0mph /  6.4km/h 12.0mph /  19.3km/h 77% 0.00in /  0mm
22:39 52.5 °F /  11.4 °C 45.5 °F /  7.5 °C 30.10in /  1019.2hPa SW 6.0mph /  9.7km/h 13.0mph /  20.9km/h 77% 0.00in /  0mm
22:44 52.6 °F /  11.4 °C 45.6 °F /  7.6 °C 30.10in /  1019.2hPa South 4.0mph /  6.4km/h 13.0mph /  20.9km/h 77% 0.00in /  0mm
22:49 52.6 °F /  11.4 °C 45.6 °F /  7.6 °C 30.10in /  1019.2hPa South 4.0mph /  6.4km/h 9.0mph /  14.5km/h 77% 0.00in /  0mm
22:54 52.7 °F /  11.5 °C 45.7 °F /  7.6 °C 30.09in /  1018.8hPa SSW 6.0mph /  9.7km/h 15.0mph /  24.1km/h 77% 0.00in /  0mm
22:59 52.7 °F /  11.5 °C 45.7 °F /  7.6 °C 30.09in /  1018.8hPa SSW 6.0mph /  9.7km/h 15.0mph /  24.1km/h 77% 0.00in /  0mm
23:04 52.7 °F /  11.5 °C 45.7 °F /  7.6 °C 30.09in /  1018.8hPa SSW 6.0mph /  9.7km/h 13.0mph /  20.9km/h 77% 0.00in /  0mm
23:09 52.7 °F /  11.5 °C 46.0 °F /  7.8 °C 30.09in /  1018.8hPa South 5.0mph /  8km/h 11.0mph /  17.7km/h 78% 0.00in /  0mm
23:14 52.7 °F /  11.5 °C 46.0 °F /  7.8 °C 30.08in /  1018.5hPa South 5.0mph /  8km/h 15.0mph /  24.1km/h 78% 0.00in /  0mm
23:19 52.7 °F /  11.5 °C 46.0 °F /  7.8 °C 30.08in /  1018.5hPa SSW 6.0mph /  9.7km/h 12.0mph /  19.3km/h 78% 0.00in /  0mm
23:24 52.8 °F /  11.6 °C 46.1 °F /  7.8 °C 30.08in /  1018.5hPa South 3.0mph /  4.8km/h 12.0mph /  19.3km/h 78% 0.00in /  0mm
23:29 52.8 °F /  11.6 °C 46.1 °F /  7.8 °C 30.08in /  1018.5hPa SSW 5.0mph /  8km/h 12.0mph /  19.3km/h 78% 0.00in /  0mm
23:34 52.9 °F /  11.6 °C 46.2 °F /  7.9 °C 30.08in /  1018.5hPa SSW 6.0mph /  9.7km/h 12.0mph /  19.3km/h 78% 0.00in /  0mm
23:39 52.9 °F /  11.6 °C 46.2 °F /  7.9 °C 30.08in /  1018.5hPa South 6.0mph /  9.7km/h 12.0mph /  19.3km/h 78% 0.00in /  0mm
23:44 52.9 °F /  11.6 °C 46.2 °F /  7.9 °C 30.07in /  1018.2hPa SSW 6.0mph /  9.7km/h 14.0mph /  22.5km/h 78% 0.00in /  0mm
23:49 52.8 °F /  11.6 °C 46.5 °F /  8.1 °C 30.07in /  1018.2hPa South 8.0mph /  12.9km/h 13.0mph /  20.9km/h 79% 0.00in /  0mm
23:54 52.7 °F /  11.5 °C 46.4 °F /  8 °C 30.07in /  1018.2hPa SW 9.0mph /  14.5km/h 11.0mph /  17.7km/h 79% 0.00in /  0mm
23:59 52.9 °F /  11.6 °C 46.6 °F /  8.1 °C 30.07in /  1018.2hPa SSW 6.0mph /  9.7km/h 15.0mph /  24.1km/h 79% 0.00in /  0mm
Buffalo, New York, USA
Compliments of Weather Underground - 2.5 mb